sensor_id;sensor_type;location;lat;lon;timestamp;temperature;humidity
46309;DHT22;32037;50.820;6.494;2023-08-06T00:00:08;20.50;62.60
46309;DHT22;32037;50.820;6.494;2023-08-06T00:02:36;20.50;62.40
46309;DHT22;32037;50.820;6.494;2023-08-06T00:05:05;20.50;62.60
46309;DHT22;32037;50.820;6.494;2023-08-06T00:07:34;20.50;62.60
46309;DHT22;32037;50.820;6.494;2023-08-06T00:10:03;20.50;62.60
46309;DHT22;32037;50.820;6.494;2023-08-06T00:12:31;20.50;62.50
46309;DHT22;32037;50.820;6.494;2023-08-06T00:15:01;20.50;62.60
46309;DHT22;32037;50.820;6.494;2023-08-06T00:17:29;20.50;62.60
46309;DHT22;32037;50.820;6.494;2023-08-06T00:19:58;20.50;62.60
46309;DHT22;32037;50.820;6.494;2023-08-06T00:22:31;20.50;62.60
46309;DHT22;32037;50.820;6.494;2023-08-06T00:25:00;20.50;62.90
46309;DHT22;32037;50.820;6.494;2023-08-06T00:27:28;20.50;62.80
46309;DHT22;32037;50.820;6.494;2023-08-06T00:29:57;20.50;62.90
46309;DHT22;32037;50.820;6.494;2023-08-06T00:32:26;20.50;62.80
46309;DHT22;32037;50.820;6.494;2023-08-06T00:34:55;20.50;63.00
46309;DHT22;32037;50.820;6.494;2023-08-06T00:37:23;20.50;62.90
46309;DHT22;32037;50.820;6.494;2023-08-06T00:39:52;20.50;63.00
46309;DHT22;32037;50.820;6.494;2023-08-06T00:42:20;20.50;63.00
46309;DHT22;32037;50.820;6.494;2023-08-06T00:44:50;20.50;63.00
46309;DHT22;32037;50.820;6.494;2023-08-06T00:47:18;20.40;62.80
46309;DHT22;32037;50.820;6.494;2023-08-06T00:49:48;20.40;62.90
46309;DHT22;32037;50.820;6.494;2023-08-06T00:52:17;20.40;62.90
46309;DHT22;32037;50.820;6.494;2023-08-06T00:54:45;20.40;63.10
46309;DHT22;32037;50.820;6.494;2023-08-06T00:57:15;20.40;63.00
46309;DHT22;32037;50.820;6.494;2023-08-06T00:59:44;20.40;62.90
46309;DHT22;32037;50.820;6.494;2023-08-06T01:02:13;20.40;63.00
46309;DHT22;32037;50.820;6.494;2023-08-06T01:04:42;20.40;62.90
46309;DHT22;32037;50.820;6.494;2023-08-06T01:07:21;20.40;62.80
46309;DHT22;32037;50.820;6.494;2023-08-06T01:10:01;20.40;62.80
46309;DHT22;32037;50.820;6.494;2023-08-06T01:12:38;20.40;62.80
46309;DHT22;32037;50.820;6.494;2023-08-06T01:15:14;20.40;62.80
46309;DHT22;32037;50.820;6.494;2023-08-06T01:17:45;20.40;62.90
46309;DHT22;32037;50.820;6.494;2023-08-06T01:20:13;20.40;62.90
46309;DHT22;32037;50.820;6.494;2023-08-06T01:22:43;20.40;62.80
46309;DHT22;32037;50.820;6.494;2023-08-06T01:25:14;20.40;62.80
46309;DHT22;32037;50.820;6.494;2023-08-06T01:27:47;20.40;62.90
46309;DHT22;32037;50.820;6.494;2023-08-06T01:30:18;20.40;62.90
46309;DHT22;32037;50.820;6.494;2023-08-06T01:32:50;20.40;62.90
46309;DHT22;32037;50.820;6.494;2023-08-06T01:35:22;20.40;62.90
46309;DHT22;32037;50.820;6.494;2023-08-06T01:37:52;20.40;62.90
46309;DHT22;32037;50.820;6.494;2023-08-06T01:40:21;20.40;63.00
46309;DHT22;32037;50.820;6.494;2023-08-06T01:42:50;20.40;62.90
46309;DHT22;32037;50.820;6.494;2023-08-06T01:45:19;20.40;62.90
46309;DHT22;32037;50.820;6.494;2023-08-06T01:47:49;20.40;62.80
46309;DHT22;32037;50.820;6.494;2023-08-06T01:50:17;20.40;62.90
46309;DHT22;32037;50.820;6.494;2023-08-06T01:52:46;20.40;62.80
46309;DHT22;32037;50.820;6.494;2023-08-06T01:55:15;20.40;62.80
46309;DHT22;32037;50.820;6.494;2023-08-06T01:57:45;20.40;62.80
46309;DHT22;32037;50.820;6.494;2023-08-06T02:00:13;20.40;62.90
46309;DHT22;32037;50.820;6.494;2023-08-06T02:02:42;20.40;62.80
46309;DHT22;32037;50.820;6.494;2023-08-06T02:05:10;20.40;62.80
46309;DHT22;32037;50.820;6.494;2023-08-06T02:07:39;20.40;62.80
46309;DHT22;32037;50.820;6.494;2023-08-06T02:10:08;20.40;62.90
46309;DHT22;32037;50.820;6.494;2023-08-06T02:12:38;20.40;62.80
46309;DHT22;32037;50.820;6.494;2023-08-06T02:15:07;20.40;62.90
46309;DHT22;32037;50.820;6.494;2023-08-06T02:17:35;20.40;62.80
46309;DHT22;32037;50.820;6.494;2023-08-06T02:20:05;20.40;63.00
46309;DHT22;32037;50.820;6.494;2023-08-06T02:22:34;20.30;63.00
46309;DHT22;32037;50.820;6.494;2023-08-06T02:25:03;20.40;63.00
46309;DHT22;32037;50.820;6.494;2023-08-06T02:27:31;20.30;62.80
46309;DHT22;32037;50.820;6.494;2023-08-06T02:30:01;20.40;62.90
46309;DHT22;32037;50.820;6.494;2023-08-06T02:32:31;20.30;63.00
46309;DHT22;32037;50.820;6.494;2023-08-06T02:35:03;20.30;63.00
46309;DHT22;32037;50.820;6.494;2023-08-06T02:37:33;20.30;63.00
46309;DHT22;32037;50.820;6.494;2023-08-06T02:40:02;20.30;62.90
46309;DHT22;32037;50.820;6.494;2023-08-06T02:42:31;20.30;62.90
46309;DHT22;32037;50.820;6.494;2023-08-06T02:45:01;20.30;63.00
46309;DHT22;32037;50.820;6.494;2023-08-06T02:47:29;20.30;63.00
46309;DHT22;32037;50.820;6.494;2023-08-06T02:49:59;20.30;62.90
46309;DHT22;32037;50.820;6.494;2023-08-06T02:52:29;20.30;62.90
46309;DHT22;32037;50.820;6.494;2023-08-06T02:54:57;20.30;63.10
46309;DHT22;32037;50.820;6.494;2023-08-06T02:57:29;20.30;63.10
46309;DHT22;32037;50.820;6.494;2023-08-06T02:59:58;20.30;63.10
46309;DHT22;32037;50.820;6.494;2023-08-06T03:02:29;20.30;63.20
46309;DHT22;32037;50.820;6.494;2023-08-06T03:05:04;20.20;63.10
46309;DHT22;32037;50.820;6.494;2023-08-06T03:07:37;20.30;63.20
46309;DHT22;32037;50.820;6.494;2023-08-06T03:10:13;20.20;63.20
46309;DHT22;32037;50.820;6.494;2023-08-06T03:12:43;20.30;63.60
46309;DHT22;32037;50.820;6.494;2023-08-06T03:15:12;20.20;63.40
46309;DHT22;32037;50.820;6.494;2023-08-06T03:17:44;20.20;63.60
46309;DHT22;32037;50.820;6.494;2023-08-06T03:20:13;20.20;63.60
46309;DHT22;32037;50.820;6.494;2023-08-06T03:22:41;20.20;63.60
46309;DHT22;32037;50.820;6.494;2023-08-06T03:25:10;20.20;63.80
46309;DHT22;32037;50.820;6.494;2023-08-06T03:27:42;20.20;63.70
46309;DHT22;32037;50.820;6.494;2023-08-06T03:30:12;20.20;63.80
46309;DHT22;32037;50.820;6.494;2023-08-06T03:32:41;20.20;63.70
46309;DHT22;32037;50.820;6.494;2023-08-06T03:35:11;20.20;63.60
46309;DHT22;32037;50.820;6.494;2023-08-06T03:37:39;20.20;63.50
46309;DHT22;32037;50.820;6.494;2023-08-06T03:40:09;20.20;63.30
46309;DHT22;32037;50.820;6.494;2023-08-06T03:42:41;20.20;63.20
46309;DHT22;32037;50.820;6.494;2023-08-06T03:45:10;20.20;63.40
46309;DHT22;32037;50.820;6.494;2023-08-06T03:47:40;20.20;63.60
46309;DHT22;32037;50.820;6.494;2023-08-06T03:50:10;20.20;63.80
46309;DHT22;32037;50.820;6.494;2023-08-06T03:52:39;20.20;63.60
46309;DHT22;32037;50.820;6.494;2023-08-06T03:55:07;20.20;63.60
46309;DHT22;32037;50.820;6.494;2023-08-06T03:57:36;20.20;63.50
46309;DHT22;32037;50.820;6.494;2023-08-06T04:00:06;20.20;63.60
46309;DHT22;32037;50.820;6.494;2023-08-06T04:02:40;20.20;63.50
46309;DHT22;32037;50.820;6.494;2023-08-06T04:05:13;20.20;63.40
46309;DHT22;32037;50.820;6.494;2023-08-06T04:07:42;20.20;63.50
46309;DHT22;32037;50.820;6.494;2023-08-06T04:10:10;20.20;63.80
46309;DHT22;32037;50.820;6.494;2023-08-06T04:12:39;20.20;63.60
46309;DHT22;32037;50.820;6.494;2023-08-06T04:15:07;20.20;63.70
46309;DHT22;32037;50.820;6.494;2023-08-06T04:17:36;20.20;63.90
46309;DHT22;32037;50.820;6.494;2023-08-06T04:20:06;20.20;63.80
46309;DHT22;32037;50.820;6.494;2023-08-06T04:22:36;20.20;63.90
46309;DHT22;32037;50.820;6.494;2023-08-06T04:25:05;20.20;64.00
46309;DHT22;32037;50.820;6.494;2023-08-06T04:27:35;20.20;63.70
46309;DHT22;32037;50.820;6.494;2023-08-06T04:30:10;20.20;63.80
46309;DHT22;32037;50.820;6.494;2023-08-06T04:32:41;20.20;64.00
46309;DHT22;32037;50.820;6.494;2023-08-06T04:35:10;20.20;63.70
46309;DHT22;32037;50.820;6.494;2023-08-06T04:37:41;20.10;63.80
46309;DHT22;32037;50.820;6.494;2023-08-06T04:40:11;20.20;63.90
46309;DHT22;32037;50.820;6.494;2023-08-06T04:42:40;20.20;63.70
46309;DHT22;32037;50.820;6.494;2023-08-06T04:45:09;20.10;63.90
46309;DHT22;32037;50.820;6.494;2023-08-06T04:47:37;20.10;63.70
46309;DHT22;32037;50.820;6.494;2023-08-06T04:50:06;20.10;63.80
46309;DHT22;32037;50.820;6.494;2023-08-06T04:52:35;20.10;63.80
46309;DHT22;32037;50.820;6.494;2023-08-06T04:55:05;20.10;63.90
46309;DHT22;32037;50.820;6.494;2023-08-06T04:57:34;20.10;64.00
46309;DHT22;32037;50.820;6.494;2023-08-06T05:00:03;20.10;63.90
46309;DHT22;32037;50.820;6.494;2023-08-06T05:02:32;20.10;64.00
46309;DHT22;32037;50.820;6.494;2023-08-06T05:05:01;20.10;63.90
46309;DHT22;32037;50.820;6.494;2023-08-06T05:07:30;20.10;63.90
46309;DHT22;32037;50.820;6.494;2023-08-06T05:09:58;20.10;63.90
46309;DHT22;32037;50.820;6.494;2023-08-06T05:12:28;20.10;64.00
46309;DHT22;32037;50.820;6.494;2023-08-06T05:14:56;20.10;63.90
46309;DHT22;32037;50.820;6.494;2023-08-06T05:17:25;20.10;63.90
46309;DHT22;32037;50.820;6.494;2023-08-06T05:19:53;20.10;63.90
46309;DHT22;32037;50.820;6.494;2023-08-06T05:22:22;20.10;64.00
46309;DHT22;32037;50.820;6.494;2023-08-06T05:24:50;20.10;63.90
46309;DHT22;32037;50.820;6.494;2023-08-06T05:27:19;20.10;64.00
46309;DHT22;32037;50.820;6.494;2023-08-06T05:29:48;20.10;63.90
46309;DHT22;32037;50.820;6.494;2023-08-06T05:32:17;20.10;63.90
46309;DHT22;32037;50.820;6.494;2023-08-06T05:34:45;20.10;63.90
46309;DHT22;32037;50.820;6.494;2023-08-06T05:37:13;20.10;63.90
46309;DHT22;32037;50.820;6.494;2023-08-06T05:39:42;20.10;64.00
46309;DHT22;32037;50.820;6.494;2023-08-06T05:42:10;20.10;63.90
46309;DHT22;32037;50.820;6.494;2023-08-06T05:44:38;20.10;64.00
46309;DHT22;32037;50.820;6.494;2023-08-06T05:47:08;20.00;63.80
46309;DHT22;32037;50.820;6.494;2023-08-06T05:49:37;20.00;63.80
46309;DHT22;32037;50.820;6.494;2023-08-06T05:52:06;20.00;63.90
46309;DHT22;32037;50.820;6.494;2023-08-06T05:54:35;20.00;63.80
46309;DHT22;32037;50.820;6.494;2023-08-06T05:57:04;20.00;63.80
46309;DHT22;32037;50.820;6.494;2023-08-06T05:59:33;20.00;65.20
46309;DHT22;32037;50.820;6.494;2023-08-06T06:02:01;20.00;63.90
46309;DHT22;32037;50.820;6.494;2023-08-06T06:04:31;20.00;63.80
46309;DHT22;32037;50.820;6.494;2023-08-06T06:06:59;20.00;63.80
46309;DHT22;32037;50.820;6.494;2023-08-06T06:09:28;20.00;63.80
46309;DHT22;32037;50.820;6.494;2023-08-06T06:11:56;20.00;63.80
46309;DHT22;32037;50.820;6.494;2023-08-06T06:14:25;20.00;63.90
46309;DHT22;32037;50.820;6.494;2023-08-06T06:16:53;20.00;63.80
46309;DHT22;32037;50.820;6.494;2023-08-06T06:19:21;20.00;63.80
46309;DHT22;32037;50.820;6.494;2023-08-06T06:21:51;20.00;63.80
46309;DHT22;32037;50.820;6.494;2023-08-06T06:24:20;20.00;63.80
46309;DHT22;32037;50.820;6.494;2023-08-06T06:26:48;20.00;63.90
46309;DHT22;32037;50.820;6.494;2023-08-06T06:29:17;20.00;63.90
46309;DHT22;32037;50.820;6.494;2023-08-06T06:31:45;20.00;63.80
46309;DHT22;32037;50.820;6.494;2023-08-06T06:34:14;20.00;63.90
46309;DHT22;32037;50.820;6.494;2023-08-06T06:36:42;20.00;63.80
46309;DHT22;32037;50.820;6.494;2023-08-06T06:39:12;20.00;63.80
46309;DHT22;32037;50.820;6.494;2023-08-06T06:41:40;20.00;63.80
46309;DHT22;32037;50.820;6.494;2023-08-06T06:44:18;20.00;63.80
46309;DHT22;32037;50.820;6.494;2023-08-06T06:46:47;20.00;63.80
46309;DHT22;32037;50.820;6.494;2023-08-06T06:49:15;19.90;63.70
46309;DHT22;32037;50.820;6.494;2023-08-06T06:51:44;19.90;63.70
46309;DHT22;32037;50.820;6.494;2023-08-06T06:54:13;19.90;63.70
46309;DHT22;32037;50.820;6.494;2023-08-06T06:56:42;20.00;63.90
46309;DHT22;32037;50.820;6.494;2023-08-06T06:59:10;19.90;64.00
46309;DHT22;32037;50.820;6.494;2023-08-06T07:01:38;19.90;63.70
46309;DHT22;32037;50.820;6.494;2023-08-06T07:04:07;19.90;63.90
46309;DHT22;32037;50.820;6.494;2023-08-06T07:06:35;19.90;63.80
46309;DHT22;32037;50.820;6.494;2023-08-06T07:09:04;19.90;63.70
46309;DHT22;32037;50.820;6.494;2023-08-06T07:11:34;19.90;64.20
46309;DHT22;32037;50.820;6.494;2023-08-06T07:14:07;19.90;64.30
46309;DHT22;32037;50.820;6.494;2023-08-06T07:16:36;19.90;64.00
46309;DHT22;32037;50.820;6.494;2023-08-06T07:19:04;19.90;63.90
46309;DHT22;32037;50.820;6.494;2023-08-06T07:21:33;19.90;64.50
46309;DHT22;32037;50.820;6.494;2023-08-06T07:24:01;19.90;64.20
46309;DHT22;32037;50.820;6.494;2023-08-06T07:26:29;19.90;64.20
46309;DHT22;32037;50.820;6.494;2023-08-06T07:28:59;19.90;64.70
46309;DHT22;32037;50.820;6.494;2023-08-06T07:31:28;19.90;64.20
46309;DHT22;32037;50.820;6.494;2023-08-06T07:33:56;19.90;64.20
46309;DHT22;32037;50.820;6.494;2023-08-06T07:36:25;19.90;63.80
46309;DHT22;32037;50.820;6.494;2023-08-06T07:38:53;19.90;64.50
46309;DHT22;32037;50.820;6.494;2023-08-06T07:41:24;19.90;64.20
46309;DHT22;32037;50.820;6.494;2023-08-06T07:43:52;19.90;64.80
46309;DHT22;32037;50.820;6.494;2023-08-06T07:46:22;19.90;64.20
46309;DHT22;32037;50.820;6.494;2023-08-06T07:48:50;19.90;64.50
46309;DHT22;32037;50.820;6.494;2023-08-06T07:51:18;19.90;64.30
46309;DHT22;32037;50.820;6.494;2023-08-06T07:53:47;19.90;64.20
46309;DHT22;32037;50.820;6.494;2023-08-06T07:56:15;19.90;64.00
46309;DHT22;32037;50.820;6.494;2023-08-06T07:58:43;19.90;63.80
46309;DHT22;32037;50.820;6.494;2023-08-06T08:01:12;19.90;63.70
46309;DHT22;32037;50.820;6.494;2023-08-06T08:03:42;19.90;64.10
46309;DHT22;32037;50.820;6.494;2023-08-06T08:06:10;19.90;63.80
46309;DHT22;32037;50.820;6.494;2023-08-06T08:08:39;19.90;64.00
46309;DHT22;32037;50.820;6.494;2023-08-06T08:11:07;19.90;64.20
46309;DHT22;32037;50.820;6.494;2023-08-06T08:13:35;19.90;64.10
46309;DHT22;32037;50.820;6.494;2023-08-06T08:16:04;19.90;65.50
46309;DHT22;32037;50.820;6.494;2023-08-06T08:18:32;19.80;64.10
46309;DHT22;32037;50.820;6.494;2023-08-06T08:21:02;19.80;64.40
46309;DHT22;32037;50.820;6.494;2023-08-06T08:23:30;19.80;64.40
46309;DHT22;32037;50.820;6.494;2023-08-06T08:25:59;19.80;64.30
46309;DHT22;32037;50.820;6.494;2023-08-06T08:28:29;19.80;64.30
46309;DHT22;32037;50.820;6.494;2023-08-06T08:30:58;19.80;64.60
46309;DHT22;32037;50.820;6.494;2023-08-06T08:33:26;19.80;64.40
46309;DHT22;32037;50.820;6.494;2023-08-06T08:35:55;19.80;64.60
46309;DHT22;32037;50.820;6.494;2023-08-06T08:38:25;19.80;64.60
46309;DHT22;32037;50.820;6.494;2023-08-06T08:40:54;19.80;64.60
46309;DHT22;32037;50.820;6.494;2023-08-06T08:43:22;19.80;64.70
46309;DHT22;32037;50.820;6.494;2023-08-06T08:45:52;19.80;65.00
46309;DHT22;32037;50.820;6.494;2023-08-06T08:48:22;19.80;65.10
46309;DHT22;32037;50.820;6.494;2023-08-06T08:50:51;19.80;65.10
46309;DHT22;32037;50.820;6.494;2023-08-06T08:53:21;19.80;65.10
46309;DHT22;32037;50.820;6.494;2023-08-06T08:55:51;19.80;65.00
46309;DHT22;32037;50.820;6.494;2023-08-06T08:58:21;19.80;65.00
46309;DHT22;32037;50.820;6.494;2023-08-06T09:00:49;19.70;65.10
46309;DHT22;32037;50.820;6.494;2023-08-06T09:03:19;19.70;64.90
46309;DHT22;32037;50.820;6.494;2023-08-06T09:05:51;19.70;64.90
46309;DHT22;32037;50.820;6.494;2023-08-06T09:08:26;19.70;65.00
46309;DHT22;32037;50.820;6.494;2023-08-06T09:10:56;19.70;65.20
46309;DHT22;32037;50.820;6.494;2023-08-06T09:13:25;19.70;65.00
46309;DHT22;32037;50.820;6.494;2023-08-06T09:15:54;19.70;65.20
46309;DHT22;32037;50.820;6.494;2023-08-06T09:18:26;19.70;65.10
46309;DHT22;32037;50.820;6.494;2023-08-06T09:20:55;19.70;65.30
46309;DHT22;32037;50.820;6.494;2023-08-06T09:23:28;19.70;65.30
46309;DHT22;32037;50.820;6.494;2023-08-06T09:25:59;19.70;65.30
46309;DHT22;32037;50.820;6.494;2023-08-06T09:28:36;19.70;65.20
46309;DHT22;32037;50.820;6.494;2023-08-06T09:31:06;19.70;65.20
46309;DHT22;32037;50.820;6.494;2023-08-06T09:33:36;19.70;65.40
46309;DHT22;32037;50.820;6.494;2023-08-06T09:36:09;19.70;65.20
46309;DHT22;32037;50.820;6.494;2023-08-06T09:38:39;19.70;65.30
46309;DHT22;32037;50.820;6.494;2023-08-06T09:41:09;19.70;65.30
46309;DHT22;32037;50.820;6.494;2023-08-06T09:43:41;19.60;65.20
46309;DHT22;32037;50.820;6.494;2023-08-06T09:46:13;19.60;65.20
46309;DHT22;32037;50.820;6.494;2023-08-06T09:48:47;19.60;65.20
46309;DHT22;32037;50.820;6.494;2023-08-06T09:51:16;19.60;65.20
46309;DHT22;32037;50.820;6.494;2023-08-06T09:53:47;19.60;65.10
46309;DHT22;32037;50.820;6.494;2023-08-06T09:56:19;19.60;65.10
46309;DHT22;32037;50.820;6.494;2023-08-06T09:58:49;19.60;65.20
46309;DHT22;32037;50.820;6.494;2023-08-06T10:01:18;19.70;65.20
46309;DHT22;32037;50.820;6.494;2023-08-06T10:03:47;19.60;65.10
46309;DHT22;32037;50.820;6.494;2023-08-06T10:06:18;19.60;65.00
46309;DHT22;32037;50.820;6.494;2023-08-06T10:08:48;19.60;65.00
46309;DHT22;32037;50.820;6.494;2023-08-06T10:11:18;19.60;66.40
46309;DHT22;32037;50.820;6.494;2023-08-06T10:13:50;19.60;65.20
46309;DHT22;32037;50.820;6.494;2023-08-06T10:16:21;19.60;65.00
46309;DHT22;32037;50.820;6.494;2023-08-06T10:18:51;19.60;65.20
46309;DHT22;32037;50.820;6.494;2023-08-06T10:21:20;19.60;65.10
46309;DHT22;32037;50.820;6.494;2023-08-06T10:23:54;19.60;65.20
46309;DHT22;32037;50.820;6.494;2023-08-06T10:26:27;19.60;65.10
46309;DHT22;32037;50.820;6.494;2023-08-06T10:28:55;19.60;65.20
46309;DHT22;32037;50.820;6.494;2023-08-06T10:31:54;19.60;65.10
46309;DHT22;32037;50.820;6.494;2023-08-06T10:34:23;19.60;65.20
46309;DHT22;32037;50.820;6.494;2023-08-06T10:36:54;19.60;65.10
46309;DHT22;32037;50.820;6.494;2023-08-06T10:39:23;19.60;65.10
46309;DHT22;32037;50.820;6.494;2023-08-06T10:41:59;19.60;65.10
46309;DHT22;32037;50.820;6.494;2023-08-06T10:44:29;19.60;65.00
46309;DHT22;32037;50.820;6.494;2023-08-06T10:47:26;19.50;65.00
46309;DHT22;32037;50.820;6.494;2023-08-06T10:49:54;19.50;65.00
46309;DHT22;32037;50.820;6.494;2023-08-06T10:52:23;19.60;65.20
46309;DHT22;32037;50.820;6.494;2023-08-06T10:54:54;19.50;65.10
46309;DHT22;32037;50.820;6.494;2023-08-06T10:57:24;19.60;65.10
46309;DHT22;32037;50.820;6.494;2023-08-06T10:59:52;19.50;65.20
46309;DHT22;32037;50.820;6.494;2023-08-06T11:02:41;19.50;65.20
46309;DHT22;32037;50.820;6.494;2023-08-06T11:05:11;19.50;65.20
46309;DHT22;32037;50.820;6.494;2023-08-06T11:07:40;19.60;65.20
46309;DHT22;32037;50.820;6.494;2023-08-06T11:10:09;19.50;65.30
46309;DHT22;32037;50.820;6.494;2023-08-06T11:12:39;19.50;65.30
46309;DHT22;32037;50.820;6.494;2023-08-06T11:15:08;19.50;65.30
46309;DHT22;32037;50.820;6.494;2023-08-06T11:17:40;19.50;65.20
46309;DHT22;32037;50.820;6.494;2023-08-06T11:20:10;19.50;65.30
46309;DHT22;32037;50.820;6.494;2023-08-06T11:22:40;19.50;65.20
46309;DHT22;32037;50.820;6.494;2023-08-06T11:25:09;19.50;65.30
46309;DHT22;32037;50.820;6.494;2023-08-06T11:27:39;19.50;65.30
46309;DHT22;32037;50.820;6.494;2023-08-06T11:30:09;19.50;65.70
46309;DHT22;32037;50.820;6.494;2023-08-06T11:32:45;19.50;65.20
46309;DHT22;32037;50.820;6.494;2023-08-06T11:35:15;19.50;65.60
46309;DHT22;32037;50.820;6.494;2023-08-06T11:37:44;19.50;65.40
46309;DHT22;32037;50.820;6.494;2023-08-06T11:40:14;19.50;65.60
46309;DHT22;32037;50.820;6.494;2023-08-06T11:42:46;19.50;65.60
46309;DHT22;32037;50.820;6.494;2023-08-06T11:45:15;19.50;65.60
46309;DHT22;32037;50.820;6.494;2023-08-06T11:47:50;19.50;65.70
46309;DHT22;32037;50.820;6.494;2023-08-06T11:50:24;19.50;65.80
46309;DHT22;32037;50.820;6.494;2023-08-06T11:52:53;19.50;65.70
46309;DHT22;32037;50.820;6.494;2023-08-06T11:55:23;19.50;65.60
46309;DHT22;32037;50.820;6.494;2023-08-06T11:57:54;19.50;66.00
46309;DHT22;32037;50.820;6.494;2023-08-06T12:00:23;19.50;65.80
46309;DHT22;32037;50.820;6.494;2023-08-06T12:02:52;19.50;65.90
46309;DHT22;32037;50.820;6.494;2023-08-06T12:05:23;19.50;66.00
46309;DHT22;32037;50.820;6.494;2023-08-06T12:07:52;19.40;66.00
46309;DHT22;32037;50.820;6.494;2023-08-06T12:10:22;19.40;66.30
46309;DHT22;32037;50.820;6.494;2023-08-06T12:12:50;19.40;66.30
46309;DHT22;32037;50.820;6.494;2023-08-06T12:15:20;19.40;66.30
46309;DHT22;32037;50.820;6.494;2023-08-06T12:17:49;19.40;66.30
46309;DHT22;32037;50.820;6.494;2023-08-06T12:20:18;19.40;66.40
46309;DHT22;32037;50.820;6.494;2023-08-06T12:22:46;19.40;66.30
46309;DHT22;32037;50.820;6.494;2023-08-06T12:25:15;19.40;66.40
46309;DHT22;32037;50.820;6.494;2023-08-06T12:27:44;19.40;66.80
46309;DHT22;32037;50.820;6.494;2023-08-06T12:30:13;19.40;67.20
46309;DHT22;32037;50.820;6.494;2023-08-06T12:32:43;19.40;66.90
46309;DHT22;32037;50.820;6.494;2023-08-06T12:35:11;19.40;66.90
46309;DHT22;32037;50.820;6.494;2023-08-06T12:37:41;19.40;66.90
46309;DHT22;32037;50.820;6.494;2023-08-06T12:40:11;19.40;66.90
46309;DHT22;32037;50.820;6.494;2023-08-06T12:42:42;19.40;66.90
46309;DHT22;32037;50.820;6.494;2023-08-06T12:45:10;19.40;66.70
46309;DHT22;32037;50.820;6.494;2023-08-06T12:47:39;19.40;67.20
46309;DHT22;32037;50.820;6.494;2023-08-06T12:50:09;19.40;67.10
46309;DHT22;32037;50.820;6.494;2023-08-06T12:52:37;19.40;67.10
46309;DHT22;32037;50.820;6.494;2023-08-06T12:55:06;19.40;67.00
46309;DHT22;32037;50.820;6.494;2023-08-06T12:57:35;19.40;67.00
46309;DHT22;32037;50.820;6.494;2023-08-06T13:00:23;19.40;66.70
46309;DHT22;32037;50.820;6.494;2023-08-06T13:02:52;19.40;66.80
46309;DHT22;32037;50.820;6.494;2023-08-06T13:05:22;19.40;67.00
46309;DHT22;32037;50.820;6.494;2023-08-06T13:07:50;19.40;67.00
46309;DHT22;32037;50.820;6.494;2023-08-06T13:10:18;19.30;67.20
46309;DHT22;32037;50.820;6.494;2023-08-06T13:12:48;19.40;67.40
46309;DHT22;32037;50.820;6.494;2023-08-06T13:15:16;19.30;67.10
46309;DHT22;32037;50.820;6.494;2023-08-06T13:17:47;19.40;67.30
46309;DHT22;32037;50.820;6.494;2023-08-06T13:20:15;19.40;67.30
46309;DHT22;32037;50.820;6.494;2023-08-06T13:22:48;19.30;67.10
46309;DHT22;32037;50.820;6.494;2023-08-06T13:25:20;19.40;67.50
46309;DHT22;32037;50.820;6.494;2023-08-06T13:27:48;19.30;67.20
46309;DHT22;32037;50.820;6.494;2023-08-06T13:30:17;19.30;67.20
46309;DHT22;32037;50.820;6.494;2023-08-06T13:32:46;19.30;67.00
46309;DHT22;32037;50.820;6.494;2023-08-06T13:35:14;19.40;67.30
46309;DHT22;32037;50.820;6.494;2023-08-06T13:37:43;19.40;67.10
46309;DHT22;32037;50.820;6.494;2023-08-06T13:40:13;19.30;67.10
46309;DHT22;32037;50.820;6.494;2023-08-06T13:42:41;19.30;67.10
46309;DHT22;32037;50.820;6.494;2023-08-06T13:45:10;19.30;66.90
46309;DHT22;32037;50.820;6.494;2023-08-06T13:47:38;19.30;67.10
46309;DHT22;32037;50.820;6.494;2023-08-06T13:50:07;19.30;67.10
46309;DHT22;32037;50.820;6.494;2023-08-06T13:52:36;19.30;67.40
46309;DHT22;32037;50.820;6.494;2023-08-06T13:55:05;19.30;67.30
46309;DHT22;32037;50.820;6.494;2023-08-06T13:57:35;19.30;67.40
46309;DHT22;32037;50.820;6.494;2023-08-06T14:00:04;19.30;67.40
46309;DHT22;32037;50.820;6.494;2023-08-06T14:02:39;19.30;67.60
46309;DHT22;32037;50.820;6.494;2023-08-06T14:05:08;19.30;67.40
46309;DHT22;32037;50.820;6.494;2023-08-06T14:07:36;19.30;67.30
46309;DHT22;32037;50.820;6.494;2023-08-06T14:10:05;19.30;67.80
46309;DHT22;32037;50.820;6.494;2023-08-06T14:12:35;19.30;67.60
46309;DHT22;32037;50.820;6.494;2023-08-06T14:15:04;19.30;67.70
46309;DHT22;32037;50.820;6.494;2023-08-06T14:17:33;19.30;67.70
46309;DHT22;32037;50.820;6.494;2023-08-06T14:20:01;19.30;67.80
46309;DHT22;32037;50.820;6.494;2023-08-06T14:22:31;19.30;67.60
46309;DHT22;32037;50.820;6.494;2023-08-06T14:24:59;19.30;67.80
46309;DHT22;32037;50.820;6.494;2023-08-06T14:27:29;19.30;67.50
46309;DHT22;32037;50.820;6.494;2023-08-06T14:29:59;19.30;67.70
46309;DHT22;32037;50.820;6.494;2023-08-06T14:32:28;19.30;67.50
46309;DHT22;32037;50.820;6.494;2023-08-06T14:34:56;19.30;67.60
46309;DHT22;32037;50.820;6.494;2023-08-06T14:37:26;19.30;67.40
46309;DHT22;32037;50.820;6.494;2023-08-06T14:39:54;19.30;67.80
46309;DHT22;32037;50.820;6.494;2023-08-06T14:42:22;19.30;67.70
46309;DHT22;32037;50.820;6.494;2023-08-06T14:44:51;19.30;67.90
46309;DHT22;32037;50.820;6.494;2023-08-06T14:47:20;19.30;67.50
46309;DHT22;32037;50.820;6.494;2023-08-06T14:49:49;19.30;67.80
46309;DHT22;32037;50.820;6.494;2023-08-06T14:52:18;19.20;67.80
46309;DHT22;32037;50.820;6.494;2023-08-06T14:54:46;19.20;67.90
46309;DHT22;32037;50.820;6.494;2023-08-06T14:57:14;19.20;67.70
46309;DHT22;32037;50.820;6.494;2023-08-06T14:59:43;19.20;67.70
46309;DHT22;32037;50.820;6.494;2023-08-06T15:02:11;19.20;67.70
46309;DHT22;32037;50.820;6.494;2023-08-06T15:04:41;19.20;67.70
46309;DHT22;32037;50.820;6.494;2023-08-06T15:07:09;19.20;67.80
46309;DHT22;32037;50.820;6.494;2023-08-06T15:09:37;19.20;67.80
46309;DHT22;32037;50.820;6.494;2023-08-06T15:12:29;19.20;67.90
46309;DHT22;32037;50.820;6.494;2023-08-06T15:14:58;19.20;68.10
46309;DHT22;32037;50.820;6.494;2023-08-06T15:17:27;19.20;67.80
46309;DHT22;32037;50.820;6.494;2023-08-06T15:19:58;19.20;68.00
46309;DHT22;32037;50.820;6.494;2023-08-06T15:22:27;19.20;68.10
46309;DHT22;32037;50.820;6.494;2023-08-06T15:24:56;19.20;68.00
46309;DHT22;32037;50.820;6.494;2023-08-06T15:27:25;19.20;67.80
46309;DHT22;32037;50.820;6.494;2023-08-06T15:29:53;19.20;67.80
46309;DHT22;32037;50.820;6.494;2023-08-06T15:32:21;19.20;67.80
46309;DHT22;32037;50.820;6.494;2023-08-06T15:34:51;19.20;68.00
46309;DHT22;32037;50.820;6.494;2023-08-06T15:37:22;19.20;67.90
46309;DHT22;32037;50.820;6.494;2023-08-06T15:39:50;19.20;68.00
46309;DHT22;32037;50.820;6.494;2023-08-06T15:42:19;19.20;68.00
46309;DHT22;32037;50.820;6.494;2023-08-06T15:44:47;19.20;67.90